LTCJ Airport Information

Runway Information
Runway 02 Length 10000 ft width 150 ft
Elevation 1796 ft Threshold 0 ft Heading 26
Runway 20 Length 10000 ft Width 150 ft
Elevation 1822 ft Threshold 0 ft Heading 206
Airport Frequencies
Type APP Name DIYARBAKIR Frequency 122.1 MHZ
Type GND Name GND Frequency 121.95 MHZ
Type TWR Name TWR Frequency 122.1 MHZ
Airport Navaids
Type TACAN Name Batman Frequency 111600 KHZ
Type VOR-DME Name Batman Frequency 116200 KHZ
Type NDB Name Batman Frequency 470 KHZ
Airport Weather Information & NOTAM
ADDS - METARS form results

(1957 UTC 16 July 2018)
 
METAR text: LTCJ 161920Z 16005KT CAVOK 28/10 Q1001 RMK RWY20 12003KT 070V210
Conditions at: LTCJ (BATMAN (TUR-AFB), TR) observed 1920 UTC 16 July 2018
Temperature: 28.0°C (82°F)
Dewpoint: 10.0°C (50°F) [RH = 32%]
Pressure (altimeter): 29.56 inches Hg (1001.0 mb)
Winds: from the SSE (160 degrees) at 6 MPH (5 knots; 2.6 m/s)
Visibility: 6 or more miles (10+ km)
Ceiling: ceiling and visibility are OK
Clouds: unknown
Weather: no significant weather observed at this time